sensor_id;sensor_type;location;lat;lon;timestamp;pressure;altitude;pressure_sealevel;temperature;humidity
6778;BME280;3426;52.244;10.534;2023-02-28T00:00:32;102281.22;;;3.60;57.57
6778;BME280;3426;52.244;10.534;2023-02-28T00:02:58;102285.59;;;3.81;57.05
6778;BME280;3426;52.244;10.534;2023-02-28T00:05:26;102286.44;;;3.44;58.45
6778;BME280;3426;52.244;10.534;2023-02-28T00:07:54;102291.66;;;3.35;58.98
6778;BME280;3426;52.244;10.534;2023-02-28T00:10:27;102282.09;;;3.88;57.16
6778;BME280;3426;52.244;10.534;2023-02-28T00:12:55;102286.41;;;3.38;59.16
6778;BME280;3426;52.244;10.534;2023-02-28T00:15:23;102276.78;;;3.21;59.60
6778;BME280;3426;52.244;10.534;2023-02-28T00:17:50;102276.84;;;3.77;58.24
6778;BME280;3426;52.244;10.534;2023-02-28T00:20:17;102277.72;;;3.81;57.31
6778;BME280;3426;52.244;10.534;2023-02-28T00:22:46;102282.97;;;3.91;56.96
6778;BME280;3426;52.244;10.534;2023-02-28T00:25:15;102279.44;;;3.91;56.70
6778;BME280;3426;52.244;10.534;2023-02-28T00:27:42;102281.19;;;3.35;58.96
6778;BME280;3426;52.244;10.534;2023-02-28T00:30:14;102284.69;;;3.36;59.12
6778;BME280;3426;52.244;10.534;2023-02-28T00:32:41;102280.34;;;3.75;58.01
6778;BME280;3426;52.244;10.534;2023-02-28T00:35:09;102284.72;;;3.76;57.74
6778;BME280;3426;52.244;10.534;2023-02-28T00:37:36;102271.59;;;3.72;58.06
6778;BME280;3426;52.244;10.534;2023-02-28T00:40:03;102269.00;;;3.65;57.71
6778;BME280;3426;52.244;10.534;2023-02-28T00:42:34;102277.69;;;3.68;57.54
6778;BME280;3426;52.244;10.534;2023-02-28T00:45:00;102272.47;;;3.67;57.42
6778;BME280;3426;52.244;10.534;2023-02-28T00:47:27;102267.22;;;3.67;57.65
6778;BME280;3426;52.244;10.534;2023-02-28T00:49:54;102279.47;;;3.59;58.43
6778;BME280;3426;52.244;10.534;2023-02-28T00:52:20;102275.94;;;3.57;58.38
6778;BME280;3426;52.244;10.534;2023-02-28T00:54:47;102280.34;;;3.67;58.30
6778;BME280;3426;52.244;10.534;2023-02-28T00:57:14;102278.56;;;3.63;58.06
6778;BME280;3426;52.244;10.534;2023-02-28T00:59:40;102272.47;;;3.61;57.88
6778;BME280;3426;52.244;10.534;2023-02-28T01:02:07;102276.84;;;3.40;58.39
6778;BME280;3426;52.244;10.534;2023-02-28T01:04:33;102275.09;;;3.67;58.55
6778;BME280;3426;52.244;10.534;2023-02-28T01:07:00;102276.84;;;3.63;58.58
6778;BME280;3426;52.244;10.534;2023-02-28T01:09:26;102277.69;;;3.50;59.29
6778;BME280;3426;52.244;10.534;2023-02-28T01:11:53;102281.19;;;3.63;58.17
6778;BME280;3426;52.244;10.534;2023-02-28T01:14:19;102270.69;;;3.38;59.00
6778;BME280;3426;52.244;10.534;2023-02-28T01:16:45;102273.22;;;3.00;60.16
6778;BME280;3426;52.244;10.534;2023-02-28T01:19:12;102267.22;;;3.55;58.79
6778;BME280;3426;52.244;10.534;2023-02-28T01:21:39;102260.25;;;3.67;58.92
6778;BME280;3426;52.244;10.534;2023-02-28T01:24:05;102260.25;;;3.73;58.72
6778;BME280;3426;52.244;10.534;2023-02-28T01:26:33;102273.25;;;3.02;60.30
6778;BME280;3426;52.244;10.534;2023-02-28T01:28:59;102268.00;;;2.89;61.02
6778;BME280;3426;52.244;10.534;2023-02-28T01:31:26;102264.59;;;3.33;59.63
6778;BME280;3426;52.244;10.534;2023-02-28T01:33:53;102262.88;;;3.61;58.37
6778;BME280;3426;52.244;10.534;2023-02-28T01:36:21;102265.47;;;3.72;57.25
6778;BME280;3426;52.244;10.534;2023-02-28T01:38:49;102261.13;;;3.79;57.71
6778;BME280;3426;52.244;10.534;2023-02-28T01:41:27;102257.63;;;3.61;57.76
6778;BME280;3426;52.244;10.534;2023-02-28T01:43:59;102249.75;;;3.72;57.76
6778;BME280;3426;52.244;10.534;2023-02-28T01:46:34;102249.75;;;3.92;57.12
6778;BME280;3426;52.244;10.534;2023-02-28T01:49:15;102248.00;;;3.85;57.45
6778;BME280;3426;52.244;10.534;2023-02-28T01:51:46;102247.09;;;3.08;58.86
6778;BME280;3426;52.244;10.534;2023-02-28T01:54:22;102248.88;;;3.44;58.02
6778;BME280;3426;52.244;10.534;2023-02-28T01:56:55;102238.41;;;3.61;57.52
6778;BME280;3426;52.244;10.534;2023-02-28T01:59:35;102246.22;;;3.04;58.66
6778;BME280;3426;52.244;10.534;2023-02-28T02:02:04;102246.25;;;3.33;57.69
6778;BME280;3426;52.244;10.534;2023-02-28T02:04:38;102248.78;;;2.87;58.70
6778;BME280;3426;52.244;10.534;2023-02-28T02:07:06;102253.25;;;3.37;57.80
6778;BME280;3426;52.244;10.534;2023-02-28T02:09:33;102248.00;;;3.68;56.51
6778;BME280;3426;52.244;10.534;2023-02-28T02:12:09;102249.75;;;3.72;56.92
6778;BME280;3426;52.244;10.534;2023-02-28T02:14:51;102245.41;;;3.82;56.87
6778;BME280;3426;52.244;10.534;2023-02-28T02:17:34;102254.13;;;3.56;57.57
6778;BME280;3426;52.244;10.534;2023-02-28T02:20:16;102250.63;;;3.50;58.14
6778;BME280;3426;52.244;10.534;2023-02-28T02:25:53;102237.41;;;2.78;60.39
6778;BME280;3426;52.244;10.534;2023-02-28T02:36:49;102233.09;;;2.98;59.55
6778;BME280;3426;52.244;10.534;2023-02-28T02:42:15;102229.69;;;3.59;58.13
6778;BME280;3426;52.244;10.534;2023-02-28T02:44:47;102241.06;;;3.64;57.39
6778;BME280;3426;52.244;10.534;2023-02-28T02:47:17;102240.16;;;3.62;57.14
6778;BME280;3426;52.244;10.534;2023-02-28T02:49:49;102244.50;;;3.63;57.47
6778;BME280;3426;52.244;10.534;2023-02-28T02:52:21;102242.75;;;3.74;57.25
6778;BME280;3426;52.244;10.534;2023-02-28T02:54:50;102251.50;;;3.52;57.95
6778;BME280;3426;52.244;10.534;2023-02-28T02:57:34;102250.63;;;3.33;58.63
6778;BME280;3426;52.244;10.534;2023-02-28T03:00:04;102252.38;;;3.48;57.28
6778;BME280;3426;52.244;10.534;2023-02-28T03:02:36;102255.00;;;3.63;57.92
6778;BME280;3426;52.244;10.534;2023-02-28T03:05:08;102254.09;;;3.23;59.02
6778;BME280;3426;52.244;10.534;2023-02-28T03:07:39;102262.88;;;3.41;58.04
6778;BME280;3426;52.244;10.534;2023-02-28T03:10:30;102263.66;;;3.01;58.76
6778;BME280;3426;52.244;10.534;2023-02-28T03:16:34;102261.97;;;3.24;57.66
6778;BME280;3426;52.244;10.534;2023-02-28T03:19:21;102261.91;;;3.03;57.95
6778;BME280;3426;52.244;10.534;2023-02-28T03:28:19;102272.47;;;3.35;57.10
6778;BME280;3426;52.244;10.534;2023-02-28T03:33:18;102257.63;;;3.67;55.97
6778;BME280;3426;52.244;10.534;2023-02-28T03:35:55;102255.00;;;3.81;54.57
6778;BME280;3426;52.244;10.534;2023-02-28T03:38:35;102261.13;;;3.62;55.39
6778;BME280;3426;52.244;10.534;2023-02-28T03:41:14;102264.56;;;3.16;55.49
6778;BME280;3426;52.244;10.534;2023-02-28T03:43:47;102261.97;;;3.90;54.48
6778;BME280;3426;52.244;10.534;2023-02-28T03:46:18;102265.47;;;3.72;55.28
6778;BME280;3426;52.244;10.534;2023-02-28T03:49:15;102257.59;;;4.06;54.34
6778;BME280;3426;52.244;10.534;2023-02-28T03:51:44;102261.94;;;4.22;55.02
6778;BME280;3426;52.244;10.534;2023-02-28T03:54:19;102254.97;;;4.15;55.33
6778;BME280;3426;52.244;10.534;2023-02-28T03:56:59;102261.94;;;4.19;55.00
6778;BME280;3426;52.244;10.534;2023-02-28T03:59:34;102262.84;;;4.15;55.63
6778;BME280;3426;52.244;10.534;2023-02-28T04:02:01;102251.47;;;4.13;55.34
6778;BME280;3426;52.244;10.534;2023-02-28T04:04:28;102262.78;;;4.24;55.29
6778;BME280;3426;52.244;10.534;2023-02-28T04:07:02;102265.50;;;3.60;54.02
6778;BME280;3426;52.244;10.534;2023-02-28T04:09:29;102272.47;;;3.36;53.99
6778;BME280;3426;52.244;10.534;2023-02-28T04:11:56;102267.19;;;3.29;53.18
6778;BME280;3426;52.244;10.534;2023-02-28T04:14:23;102249.72;;;4.01;52.31
6778;BME280;3426;52.244;10.534;2023-02-28T04:16:49;102247.03;;;4.35;51.92
6778;BME280;3426;52.244;10.534;2023-02-28T04:19:17;102250.50;;;4.46;52.04
6778;BME280;3426;52.244;10.534;2023-02-28T04:21:49;102244.47;;;4.16;53.18
6778;BME280;3426;52.244;10.534;2023-02-28T04:24:22;102243.50;;;4.45;52.96
6778;BME280;3426;52.244;10.534;2023-02-28T04:26:51;102248.88;;;3.96;52.53
6778;BME280;3426;52.244;10.534;2023-02-28T04:29:31;102248.81;;;4.27;52.65
6778;BME280;3426;52.244;10.534;2023-02-28T04:31:59;102254.03;;;4.43;51.97
6778;BME280;3426;52.244;10.534;2023-02-28T04:34:27;102267.13;;;4.43;52.13
6778;BME280;3426;52.244;10.534;2023-02-28T04:36:55;102269.78;;;4.33;51.58
6778;BME280;3426;52.244;10.534;2023-02-28T04:39:38;102261.09;;;4.20;52.73
6778;BME280;3426;52.244;10.534;2023-02-28T04:42:05;102274.06;;;2.82;54.84
6778;BME280;3426;52.244;10.534;2023-02-28T04:44:31;102268.97;;;3.39;54.04
6778;BME280;3426;52.244;10.534;2023-02-28T04:46:58;102268.69;;;2.55;55.39
6778;BME280;3426;52.244;10.534;2023-02-28T04:49:25;102265.47;;;3.63;54.15
6778;BME280;3426;52.244;10.534;2023-02-28T04:51:51;102262.88;;;3.64;53.32
6778;BME280;3426;52.244;10.534;2023-02-28T04:54:19;102260.22;;;3.99;52.60
6778;BME280;3426;52.244;10.534;2023-02-28T04:56:45;102258.47;;;4.20;51.96
6778;BME280;3426;52.244;10.534;2023-02-28T04:59:12;102274.22;;;3.53;53.14
6778;BME280;3426;52.244;10.534;2023-02-28T05:01:38;102262.81;;;4.03;52.18
6778;BME280;3426;52.244;10.534;2023-02-28T05:04:05;102262.84;;;3.80;52.30
6778;BME280;3426;52.244;10.534;2023-02-28T05:06:32;102255.84;;;4.11;52.50
6778;BME280;3426;52.244;10.534;2023-02-28T05:08:59;102269.84;;;3.53;53.60
6778;BME280;3426;52.244;10.534;2023-02-28T05:11:31;102264.63;;;3.87;52.51
6778;BME280;3426;52.244;10.534;2023-02-28T05:14:02;102272.47;;;3.47;52.88
6778;BME280;3426;52.244;10.534;2023-02-28T05:16:30;102267.25;;;3.76;53.26
6778;BME280;3426;52.244;10.534;2023-02-28T05:18:57;102264.63;;;3.75;52.96
6778;BME280;3426;52.244;10.534;2023-02-28T05:23:51;102265.50;;;3.81;53.33
6778;BME280;3426;52.244;10.534;2023-02-28T05:26:18;102262.88;;;3.78;52.88
6778;BME280;3426;52.244;10.534;2023-02-28T05:28:44;102266.34;;;4.00;52.39
6778;BME280;3426;52.244;10.534;2023-02-28T05:31:11;102268.09;;;3.43;53.82
6778;BME280;3426;52.244;10.534;2023-02-28T05:33:38;102270.56;;;2.79;54.86
6778;BME280;3426;52.244;10.534;2023-02-28T05:36:06;102261.13;;;3.88;53.02
6778;BME280;3426;52.244;10.534;2023-02-28T05:38:32;102254.06;;;4.19;52.55
6778;BME280;3426;52.244;10.534;2023-02-28T05:40:59;102266.34;;;3.36;54.16
6778;BME280;3426;52.244;10.534;2023-02-28T05:43:25;102262.84;;;3.73;53.16
6778;BME280;3426;52.244;10.534;2023-02-28T05:45:52;102269.00;;;3.53;54.04
6778;BME280;3426;52.244;10.534;2023-02-28T05:48:18;102269.75;;;2.90;53.67
6778;BME280;3426;52.244;10.534;2023-02-28T05:50:45;102282.16;;;1.79;58.55
6778;BME280;3426;52.244;10.534;2023-02-28T05:53:12;102270.28;;;2.24;56.84
6778;BME280;3426;52.244;10.534;2023-02-28T05:55:39;102270.09;;;1.98;58.88
6778;BME280;3426;52.244;10.534;2023-02-28T05:58:07;102285.09;;;2.26;58.12
6778;BME280;3426;52.244;10.534;2023-02-28T06:00:33;102274.28;;;1.74;59.52
6778;BME280;3426;52.244;10.534;2023-02-28T06:03:00;102278.94;;;2.12;59.55
6778;BME280;3426;52.244;10.534;2023-02-28T06:05:28;102283.91;;;1.80;60.09
6778;BME280;3426;52.244;10.534;2023-02-28T06:07:54;102288.88;;;1.48;60.81
6778;BME280;3426;52.244;10.534;2023-02-28T06:10:21;102288.13;;;1.59;60.83
6778;BME280;3426;52.244;10.534;2023-02-28T06:12:47;102288.69;;;2.39;59.16
6778;BME280;3426;52.244;10.534;2023-02-28T06:15:15;102297.03;;;1.86;59.60
6778;BME280;3426;52.244;10.534;2023-02-28T06:17:43;102304.66;;;1.63;60.74
6778;BME280;3426;52.244;10.534;2023-02-28T06:20:11;102308.53;;;1.14;62.41
6778;BME280;3426;52.244;10.534;2023-02-28T06:22:41;102295.63;;;1.27;62.14
6778;BME280;3426;52.244;10.534;2023-02-28T06:25:09;102300.25;;;1.54;61.72
6778;BME280;3426;52.244;10.534;2023-02-28T06:27:36;102304.44;;;1.39;61.77
6778;BME280;3426;52.244;10.534;2023-02-28T06:30:02;102302.59;;;1.28;62.36
6778;BME280;3426;52.244;10.534;2023-02-28T06:32:29;102304.72;;;1.69;60.96
6778;BME280;3426;52.244;10.534;2023-02-28T06:34:56;102306.94;;;1.28;61.73
6778;BME280;3426;52.244;10.534;2023-02-28T06:37:24;102307.03;;;1.37;62.04
6778;BME280;3426;52.244;10.534;2023-02-28T06:39:54;102321.03;;;1.47;61.64
6778;BME280;3426;52.244;10.534;2023-02-28T06:42:22;102315.06;;;1.57;61.08
6778;BME280;3426;52.244;10.534;2023-02-28T06:44:55;102315.53;;;1.18;62.63
6778;BME280;3426;52.244;10.534;2023-02-28T06:47:22;102320.56;;;1.88;60.49
6778;BME280;3426;52.244;10.534;2023-02-28T06:49:49;102321.41;;;1.83;61.29
6778;BME280;3426;52.244;10.534;2023-02-28T06:52:16;102325.44;;;1.48;60.92
6778;BME280;3426;52.244;10.534;2023-02-28T06:54:42;102322.41;;;2.04;61.76
6778;BME280;3426;52.244;10.534;2023-02-28T06:57:09;102324.66;;;1.59;61.35
6778;BME280;3426;52.244;10.534;2023-02-28T06:59:35;102329.19;;;1.80;61.18
6778;BME280;3426;52.244;10.534;2023-02-28T07:02:02;102316.09;;;1.74;61.21
6778;BME280;3426;52.244;10.534;2023-02-28T07:04:29;102332.56;;;1.66;61.23
6778;BME280;3426;52.244;10.534;2023-02-28T07:06:55;102330.66;;;1.52;61.33
6778;BME280;3426;52.244;10.534;2023-02-28T07:09:23;102326.75;;;1.99;60.18
6778;BME280;3426;52.244;10.534;2023-02-28T07:11:50;102331.06;;;1.97;60.10
6778;BME280;3426;52.244;10.534;2023-02-28T07:14:16;102326.16;;;2.43;58.41
6778;BME280;3426;52.244;10.534;2023-02-28T07:16:42;102339.81;;;2.00;60.02
6778;BME280;3426;52.244;10.534;2023-02-28T07:19:11;102346.41;;;2.73;57.74
6778;BME280;3426;52.244;10.534;2023-02-28T07:21:37;102336.84;;;2.82;56.80
6778;BME280;3426;52.244;10.534;2023-02-28T07:24:04;102339.72;;;3.71;54.92
6778;BME280;3426;52.244;10.534;2023-02-28T07:26:31;102341.19;;;2.77;56.64
6778;BME280;3426;52.244;10.534;2023-02-28T07:29:00;102342.13;;;2.95;56.44
6778;BME280;3426;52.244;10.534;2023-02-28T07:31:26;102324.78;;;3.19;55.53
6778;BME280;3426;52.244;10.534;2023-02-28T07:33:53;102342.34;;;4.14;54.30
6778;BME280;3426;52.244;10.534;2023-02-28T07:36:20;102337.97;;;3.47;54.74
6778;BME280;3426;52.244;10.534;2023-02-28T07:38:47;102336.19;;;4.36;52.15
6778;BME280;3426;52.244;10.534;2023-02-28T07:41:17;102333.59;;;3.54;54.55
6778;BME280;3426;52.244;10.534;2023-02-28T07:43:44;102339.75;;;3.92;53.68
6778;BME280;3426;52.244;10.534;2023-02-28T07:46:12;102340.59;;;3.55;54.60
6778;BME280;3426;52.244;10.534;2023-02-28T07:48:42;102335.34;;;4.37;52.33
6778;BME280;3426;52.244;10.534;2023-02-28T07:51:09;102332.56;;;4.92;51.00
6778;BME280;3426;52.244;10.534;2023-02-28T07:53:35;102350.16;;;3.51;54.38
6778;BME280;3426;52.244;10.534;2023-02-28T07:56:02;102336.91;;;2.95;56.00
6778;BME280;3426;52.244;10.534;2023-02-28T07:58:30;102340.53;;;3.45;54.72
6778;BME280;3426;52.244;10.534;2023-02-28T08:00:56;102337.06;;;3.51;53.88
6778;BME280;3426;52.244;10.534;2023-02-28T08:03:24;102336.06;;;2.97;56.01
6778;BME280;3426;52.244;10.534;2023-02-28T08:05:51;102329.13;;;4.73;53.88
6778;BME280;3426;52.244;10.534;2023-02-28T08:08:18;102325.69;;;4.61;52.50
6778;BME280;3426;52.244;10.534;2023-02-28T08:10:45;102332.59;;;4.83;51.50
6778;BME280;3426;52.244;10.534;2023-02-28T08:13:11;102329.56;;;5.63;49.82
6778;BME280;3426;52.244;10.534;2023-02-28T08:15:39;102323.28;;;5.82;48.97
6778;BME280;3426;52.244;10.534;2023-02-28T08:18:06;102323.78;;;9.11;42.68
6778;BME280;3426;52.244;10.534;2023-02-28T08:20:35;102324.00;;;6.88;45.86
6778;BME280;3426;52.244;10.534;2023-02-28T08:23:02;102326.84;;;6.69;46.67
6778;BME280;3426;52.244;10.534;2023-02-28T08:25:28;102335.13;;;5.11;49.97
6778;BME280;3426;52.244;10.534;2023-02-28T08:27:55;102336.81;;;6.39;48.94
6778;BME280;3426;52.244;10.534;2023-02-28T08:30:21;102316.59;;;6.44;48.00
6778;BME280;3426;52.244;10.534;2023-02-28T08:32:48;102321.72;;;7.29;44.99
6778;BME280;3426;52.244;10.534;2023-02-28T08:35:14;102325.84;;;10.11;42.15
6778;BME280;3426;52.244;10.534;2023-02-28T08:37:41;102333.16;;;6.54;47.64
6778;BME280;3426;52.244;10.534;2023-02-28T08:40:08;102327.22;;;8.24;43.99
6778;BME280;3426;52.244;10.534;2023-02-28T08:42:35;102324.34;;;9.65;42.10
6778;BME280;3426;52.244;10.534;2023-02-28T08:45:02;102332.06;;;7.98;43.86
6778;BME280;3426;52.244;10.534;2023-02-28T08:47:29;102337.16;;;7.53;45.19
6778;BME280;3426;52.244;10.534;2023-02-28T08:49:55;102321.78;;;11.25;40.00
6778;BME280;3426;52.244;10.534;2023-02-28T08:52:22;102320.97;;;10.30;41.25
6778;BME280;3426;52.244;10.534;2023-02-28T08:54:48;102317.66;;;11.15;38.40
6778;BME280;3426;52.244;10.534;2023-02-28T08:57:15;102322.28;;;10.79;39.85
6778;BME280;3426;52.244;10.534;2023-02-28T08:59:41;102322.84;;;11.76;37.29
6778;BME280;3426;52.244;10.534;2023-02-28T09:02:10;102313.13;;;13.70;35.28
6778;BME280;3426;52.244;10.534;2023-02-28T09:04:38;102315.88;;;12.99;35.07
6778;BME280;3426;52.244;10.534;2023-02-28T09:07:04;102325.63;;;10.85;38.81
6778;BME280;3426;52.244;10.534;2023-02-28T09:09:31;102332.31;;;10.68;38.50
6778;BME280;3426;52.244;10.534;2023-02-28T09:11:57;102324.38;;;10.66;39.72
6778;BME280;3426;52.244;10.534;2023-02-28T09:14:24;102326.41;;;11.19;37.99
6778;BME280;3426;52.244;10.534;2023-02-28T09:16:50;102325.84;;;10.11;41.71
6778;BME280;3426;52.244;10.534;2023-02-28T09:19:17;102319.97;;;11.55;37.10
6778;BME280;3426;52.244;10.534;2023-02-28T09:21:43;102332.03;;;11.65;37.71
6778;BME280;3426;52.244;10.534;2023-02-28T09:24:10;102323.31;;;10.73;39.22
6778;BME280;3426;52.244;10.534;2023-02-28T09:26:39;102324.38;;;9.23;42.08
6778;BME280;3426;52.244;10.534;2023-02-28T09:29:21;102327.81;;;10.39;39.32
6778;BME280;3426;52.244;10.534;2023-02-28T09:31:47;102334.13;;;10.66;39.15
6778;BME280;3426;52.244;10.534;2023-02-28T09:34:14;102329.56;;;11.31;38.34
6778;BME280;3426;52.244;10.534;2023-02-28T09:36:40;102326.38;;;11.20;38.25
6778;BME280;3426;52.244;10.534;2023-02-28T09:39:12;102332.75;;;11.71;38.00
6778;BME280;3426;52.244;10.534;2023-02-28T09:41:45;102331.31;;;11.88;37.62
6778;BME280;3426;52.244;10.534;2023-02-28T09:44:30;102339.50;;;11.81;38.16
6778;BME280;3426;52.244;10.534;2023-02-28T09:47:01;102336.03;;;10.92;38.51
6778;BME280;3426;52.244;10.534;2023-02-28T09:49:37;102332.66;;;10.21;40.28
6778;BME280;3426;52.244;10.534;2023-02-28T09:52:10;102337.81;;;10.27;40.44
6778;BME280;3426;52.244;10.534;2023-02-28T09:54:38;102322.34;;;10.45;39.18
6778;BME280;3426;52.244;10.534;2023-02-28T09:57:38;102334.13;;;10.66;37.88
6778;BME280;3426;52.244;10.534;2023-02-28T10:05:27;102343.44;;;9.78;38.40
6778;BME280;3426;52.244;10.534;2023-02-28T10:10:44;102338.34;;;9.32;38.35
6778;BME280;3426;52.244;10.534;2023-02-28T10:13:24;102346.25;;;8.90;39.01
6778;BME280;3426;52.244;10.534;2023-02-28T10:15:56;102345.72;;;8.72;39.71
6778;BME280;3426;52.244;10.534;2023-02-28T10:18:28;102342.72;;;8.89;40.06
6778;BME280;3426;52.244;10.534;2023-02-28T10:20:57;102340.97;;;9.32;39.93
6778;BME280;3426;52.244;10.534;2023-02-28T10:23:32;102340.25;;;9.25;40.79
6778;BME280;3426;52.244;10.534;2023-02-28T10:26:09;102334.78;;;9.33;40.19
6778;BME280;3426;52.244;10.534;2023-02-28T10:28:37;102335.53;;;8.97;39.75
6778;BME280;3426;52.244;10.534;2023-02-28T10:31:04;102335.44;;;9.02;39.07
6778;BME280;3426;52.244;10.534;2023-02-28T10:33:33;102346.31;;;8.87;38.78
6778;BME280;3426;52.244;10.534;2023-02-28T10:36:02;102352.72;;;8.26;39.66
6778;BME280;3426;52.244;10.534;2023-02-28T10:38:35;102354.53;;;8.22;39.96
6778;BME280;3426;52.244;10.534;2023-02-28T10:41:11;102346.13;;;8.00;41.25
6778;BME280;3426;52.244;10.534;2023-02-28T10:43:42;102340.72;;;8.59;39.74
6778;BME280;3426;52.244;10.534;2023-02-28T10:48:44;102348.53;;;8.14;38.99
6778;BME280;3426;52.244;10.534;2023-02-28T10:51:13;102351.94;;;7.65;38.90
6778;BME280;3426;52.244;10.534;2023-02-28T10:56:26;102344.56;;;7.87;39.18
6778;BME280;3426;52.244;10.534;2023-02-28T10:59:29;102332.97;;;8.48;38.70
6778;BME280;3426;52.244;10.534;2023-02-28T11:01:56;102347.16;;;7.30;39.19
6778;BME280;3426;52.244;10.534;2023-02-28T11:09:35;102329.81;;;8.26;37.62
6778;BME280;3426;52.244;10.534;2023-02-28T11:12:07;102321.25;;;8.13;38.20
6778;BME280;3426;52.244;10.534;2023-02-28T11:14:49;102338.47;;;7.83;37.69
6778;BME280;3426;52.244;10.534;2023-02-28T11:17:21;102330.72;;;7.73;37.39
6778;BME280;3426;52.244;10.534;2023-02-28T11:19:53;102324.34;;;7.29;38.05
6778;BME280;3426;52.244;10.534;2023-02-28T11:22:24;102331.78;;;6.96;39.96
6778;BME280;3426;52.244;10.534;2023-02-28T11:25:00;102316.88;;;8.12;38.15
6778;BME280;3426;52.244;10.534;2023-02-28T11:30:00;102323.81;;;7.02;39.15
6778;BME280;3426;52.244;10.534;2023-02-28T11:32:28;102317.81;;;7.54;37.88
6778;BME280;3426;52.244;10.534;2023-02-28T11:35:03;102305.72;;;7.96;36.75
6778;BME280;3426;52.244;10.534;2023-02-28T11:37:31;102305.16;;;8.29;36.75
6778;BME280;3426;52.244;10.534;2023-02-28T11:39:58;102308.38;;;7.95;37.92
6778;BME280;3426;52.244;10.534;2023-02-28T11:42:35;102298.00;;;8.34;36.35
6778;BME280;3426;52.244;10.534;2023-02-28T11:56:03;102310.06;;;7.45;35.88
6778;BME280;3426;52.244;10.534;2023-02-28T11:58:59;102306.34;;;6.95;36.85
6778;BME280;3426;52.244;10.534;2023-02-28T12:01:41;102300.06;;;7.65;35.92
6778;BME280;3426;52.244;10.534;2023-02-28T12:06:57;102308.06;;;7.59;35.84
6778;BME280;3426;52.244;10.534;2023-02-28T12:09:35;102293.19;;;6.20;38.03
6778;BME280;3426;52.244;10.534;2023-02-28T12:12:27;102296.09;;;7.37;36.18
6778;BME280;3426;52.244;10.534;2023-02-28T12:15:16;102296.56;;;7.65;34.94
6778;BME280;3426;52.244;10.534;2023-02-28T12:20:57;102289.81;;;8.00;36.37
6778;BME280;3426;52.244;10.534;2023-02-28T12:26:30;102287.06;;;6.93;37.33
6778;BME280;3426;52.244;10.534;2023-02-28T12:29:28;102291.06;;;7.22;37.08
6778;BME280;3426;52.244;10.534;2023-02-28T12:31:59;102302.66;;;7.68;35.78
6778;BME280;3426;52.244;10.534;2023-02-28T12:34:41;102288.06;;;8.00;35.64
6778;BME280;3426;52.244;10.534;2023-02-28T12:37:14;102282.66;;;7.55;35.91
6778;BME280;3426;52.244;10.534;2023-02-28T12:39:45;102272.84;;;7.63;36.02
6778;BME280;3426;52.244;10.534;2023-02-28T12:42:32;102282.78;;;7.46;36.84
6778;BME280;3426;52.244;10.534;2023-02-28T12:45:48;102272.38;;;7.37;36.91
6778;BME280;3426;52.244;10.534;2023-02-28T12:48:19;102271.59;;;7.32;37.37
6778;BME280;3426;52.244;10.534;2023-02-28T12:50:48;102266.38;;;7.29;36.63
6778;BME280;3426;52.244;10.534;2023-02-28T12:58:53;102253.38;;;7.70;36.23
6778;BME280;3426;52.244;10.534;2023-02-28T13:04:32;102247.94;;;7.83;35.52
6778;BME280;3426;52.244;10.534;2023-02-28T13:09:56;102244.75;;;7.62;36.37
6778;BME280;3426;52.244;10.534;2023-02-28T13:12:23;102242.44;;;7.41;36.43
6778;BME280;3426;52.244;10.534;2023-02-28T13:14:50;102234.19;;;7.62;35.99
6778;BME280;3426;52.244;10.534;2023-02-28T13:17:28;102226.56;;;7.46;36.73
6778;BME280;3426;52.244;10.534;2023-02-28T13:24:55;102213.06;;;7.64;35.95
6778;BME280;3426;52.244;10.534;2023-02-28T13:27:36;102202.97;;;7.87;35.42
6778;BME280;3426;52.244;10.534;2023-02-28T13:38:44;102206.28;;;8.00;35.77
6778;BME280;3426;52.244;10.534;2023-02-28T13:46:35;102208.69;;;8.12;35.22
6778;BME280;3426;52.244;10.534;2023-02-28T13:52:20;102202.00;;;7.93;35.17
6778;BME280;3426;52.244;10.534;2023-02-28T14:03:38;102202.81;;;8.43;35.13
6778;BME280;3426;52.244;10.534;2023-02-28T14:05:37;102219.09;;;6.55;37.88
6778;BME280;3426;52.244;10.534;2023-02-28T14:10:45;102209.81;;;7.99;34.74
6778;BME280;3426;52.244;10.534;2023-02-28T14:15:57;102222.69;;;7.68;35.34
6778;BME280;3426;52.244;10.534;2023-02-28T14:18:37;102223.03;;;7.47;35.74
6778;BME280;3426;52.244;10.534;2023-02-28T14:32:18;102203.53;;;8.06;35.87
6778;BME280;3426;52.244;10.534;2023-02-28T14:34:55;102205.72;;;7.83;35.75
6778;BME280;3426;52.244;10.534;2023-02-28T14:37:36;102222.41;;;7.31;36.87
6778;BME280;3426;52.244;10.534;2023-02-28T14:40:04;102212.63;;;7.88;35.66
6778;BME280;3426;52.244;10.534;2023-02-28T14:42:38;102203.78;;;7.92;35.79
6778;BME280;3426;52.244;10.534;2023-02-28T14:45:19;102203.66;;;8.00;35.61
6778;BME280;3426;52.244;10.534;2023-02-28T14:47:46;102196.84;;;7.87;35.40
6778;BME280;3426;52.244;10.534;2023-02-28T14:50:22;102204.06;;;8.22;35.51
6778;BME280;3426;52.244;10.534;2023-02-28T14:52:53;102197.16;;;8.16;35.88
6778;BME280;3426;52.244;10.534;2023-02-28T14:55:24;102205.63;;;7.38;38.23
6778;BME280;3426;52.244;10.534;2023-02-28T14:57:53;102195.81;;;8.42;36.31
6778;BME280;3426;52.244;10.534;2023-02-28T15:02:51;102190.31;;;7.58;37.41
6778;BME280;3426;52.244;10.534;2023-02-28T15:05:24;102204.22;;;7.14;38.30
6778;BME280;3426;52.244;10.534;2023-02-28T15:08:19;102184.28;;;8.01;36.19
6778;BME280;3426;52.244;10.534;2023-02-28T15:11:07;102181.84;;;8.34;35.88
6778;BME280;3426;52.244;10.534;2023-02-28T15:16:14;102182.88;;;7.82;36.72
6778;BME280;3426;52.244;10.534;2023-02-28T15:21:19;102183.53;;;7.93;36.40
6778;BME280;3426;52.244;10.534;2023-02-28T15:23:52;102176.03;;;8.61;35.43
6778;BME280;3426;52.244;10.534;2023-02-28T15:26:21;102180.84;;;7.47;37.77
6778;BME280;3426;52.244;10.534;2023-02-28T15:28:58;102182.88;;;7.32;37.39
6778;BME280;3426;52.244;10.534;2023-02-28T15:31:31;102178.44;;;7.82;36.39
6778;BME280;3426;52.244;10.534;2023-02-28T15:34:20;102177.59;;;7.82;36.25
6778;BME280;3426;52.244;10.534;2023-02-28T15:36:50;102187.16;;;7.87;36.76
6778;BME280;3426;52.244;10.534;2023-02-28T15:39:23;102181.84;;;8.34;35.61
6778;BME280;3426;52.244;10.534;2023-02-28T15:41:49;102181.53;;;8.52;35.64
6778;BME280;3426;52.244;10.534;2023-02-28T15:49:25;102183.75;;;8.70;35.77